Time;durP1;ratioP1;P1;durP2;ratioP2;P2;SDS_P1;SDS_P2;PMS_P1;PMS_P2;Temp;Humidity;BMP_temperature;BMP_pressure;BME280_temperature;BME280_humidity;BME280_pressure;Samples;Min_cycle;Max_cycle;Signal;HPM_P1;HPM_P2
2021/06/13 00:01:13;;;;;;;;;;;;;;;22.61;43.43;101580.22;2070509;28;4089;-39
2021/06/13 00:02:39;;;;;;;;;;;;;;;22.61;43.21;101582.25;2070957;28;3867;-40
2021/06/13 00:04:06;;;;;;;;;;;;;;;22.59;43.04;101585.44;2070022;28;4085;-39
2021/06/13 00:05:32;;;;;;;;;;;;;;;22.60;43.13;101592.81;2066212;28;4056;-40
2021/06/13 00:06:58;;;;;;;;;;;;;;;22.60;43.22;101584.25;2067806;28;4379;-40
2021/06/13 00:08:26;;;;;;;;;;;;;;;22.61;43.38;101585.94;2070098;28;4043;-39
2021/06/13 00:09:52;;;;;;;;;;;;;;;22.62;43.30;101589.63;2068795;28;4060;-40
2021/06/13 00:11:18;;;;;;;;;;;;;;;22.59;43.10;101587.47;2069457;28;4249;-37
2021/06/13 00:12:44;;;;;;;;;;;;;;;22.59;43.36;101585.44;2069760;28;3889;-40
2021/06/13 00:14:12;;;;;;;;;;;;;;;22.60;43.42;101589.94;2068489;28;4225;-39
2021/06/13 00:15:38;;;;;;;;;;;;;;;22.59;43.44;101585.44;2069163;28;4233;-40
2021/06/13 00:17:05;;;;;;;;;;;;;;;22.58;43.11;101580.94;2068659;28;4250;-40
2021/06/13 00:18:32;;;;;;;;;;;;;;;22.56;43.30;101591.84;2071124;28;3968;-39
2021/06/13 00:20:00;;;;;;;;;;;;;;;22.58;43.41;101597.22;2069656;28;4195;-39
2021/06/13 00:21:26;;;;;;;;;;;;;;;22.58;43.41;101600.88;2062143;28;3919;-41
2021/06/13 00:22:53;;;;;;;;;;;;;;;22.58;43.26;101600.06;2066466;28;3859;-40
2021/06/13 00:24:22;;;;;;;;;;;;;;;22.57;43.11;101598.38;2066665;28;4026;-39
2021/06/13 00:25:48;;;;;;;;;;;;;;;22.57;43.34;101604.91;2070355;28;4092;-40
2021/06/13 00:27:14;;;;;;;;;;;;;;;22.58;43.25;101605.75;2071192;28;4044;-40
2021/06/13 00:28:42;;;;;;;;;;;;;;;22.57;43.30;101616.31;2068732;28;3902;-40
2021/06/13 00:30:08;;;;;;;;;;;;;;;22.55;43.28;101607.28;2070561;28;4221;-40
2021/06/13 00:31:36;;;;;;;;;;;;;;;22.53;43.32;101603.09;2067832;28;4244;-40
2021/06/13 00:33:03;;;;;;;;;;;;;;;22.52;43.27;101605.09;2068235;28;4198;-40
2021/06/13 00:34:30;;;;;;;;;;;;;;;22.53;43.22;101608.81;2068692;28;3919;-39
2021/06/13 00:35:56;;;;;;;;;;;;;;;22.51;43.30;101608.31;2069625;28;4235;-40
2021/06/13 00:37:23;;;;;;;;;;;;;;;22.52;43.09;101607.94;2068685;28;3998;-39
2021/06/13 00:38:49;;;;;;;;;;;;;;;22.52;43.12;101610.81;2064461;28;3857;-40
2021/06/13 00:40:15;;;;;;;;;;;;;;;22.53;43.08;101608.81;2067289;28;4075;-38
2021/06/13 00:41:41;;;;;;;;;;;;;;;22.52;43.13;101604.25;2069991;28;3875;-39
2021/06/13 00:43:08;;;;;;;;;;;;;;;22.53;43.28;101611.66;2069522;28;4070;-40
2021/06/13 00:44:34;;;;;;;;;;;;;;;22.52;43.00;101607.94;2068901;28;3885;-40
2021/06/13 00:46:02;;;;;;;;;;;;;;;22.51;43.11;101616.88;2069092;28;4199;-39
2021/06/13 00:47:28;;;;;;;;;;;;;;;22.50;43.04;101610.34;2070849;28;4114;-41
2021/06/13 00:48:55;;;;;;;;;;;;;;;22.50;43.06;101613.19;2070349;28;4212;-40
2021/06/13 00:50:23;;;;;;;;;;;;;;;22.50;42.71;101623.75;2070906;28;4045;-40
2021/06/13 00:51:49;;;;;;;;;;;;;;;22.48;42.67;101618.38;2071764;28;4057;-38
2021/06/13 00:53:15;;;;;;;;;;;;;;;22.48;42.86;101611.84;2069213;28;4047;-40
2021/06/13 00:54:42;;;;;;;;;;;;;;;22.47;42.65;101616.72;2066676;28;4257;-39
2021/06/13 00:56:09;;;;;;;;;;;;;;;22.46;42.48;101609.34;2067285;28;5405;-39
2021/06/13 00:57:35;;;;;;;;;;;;;;;22.45;42.46;101616.22;2064971;28;3910;-40
2021/06/13 00:59:03;;;;;;;;;;;;;;;22.45;42.53;101613.38;2060714;28;4255;-38
2021/06/13 01:00:29;;;;;;;;;;;;;;;22.44;42.52;101618.25;2068611;28;4085;-40
2021/06/13 01:01:55;;;;;;;;;;;;;;;22.45;42.58;101619.09;2067595;28;4191;-37
2021/06/13 01:03:22;;;;;;;;;;;;;;;22.44;42.27;101617.38;2070595;28;3919;-40
2021/06/13 01:04:49;;;;;;;;;;;;;;;22.43;42.24;101624.28;2070675;28;3850;-37
2021/06/13 01:06:15;;;;;;;;;;;;;;;22.42;42.24;101625.47;2064560;28;4065;-39
2021/06/13 01:07:41;;;;;;;;;;;;;;;22.42;42.30;101614.91;2070954;28;4048;-38
2021/06/13 01:09:09;;;;;;;;;;;;;;;22.43;42.26;101627.13;2072895;28;4193;-39
2021/06/13 01:10:37;;;;;;;;;;;;;;;22.42;42.31;101622.63;2068722;28;4218;-38
2021/06/13 01:12:05;;;;;;;;;;;;;;;22.41;42.23;101621.78;2067554;28;5260;-40
2021/06/13 01:13:31;;;;;;;;;;;;;;;22.41;42.32;101629.47;2068678;28;3970;-40
2021/06/13 01:14:58;;;;;;;;;;;;;;;22.42;42.35;101622.63;2070302;28;4206;-37
2021/06/13 01:16:25;;;;;;;;;;;;;;;22.41;42.35;101623.78;2071626;28;4082;-40
2021/06/13 01:17:51;;;;;;;;;;;;;;;22.40;42.24;101624.97;2067387;28;3788;-40
2021/06/13 01:19:17;;;;;;;;;;;;;;;22.39;42.27;101629.84;2068943;28;4106;-39
2021/06/13 01:20:44;;;;;;;;;;;;;;;22.39;42.25;101632.69;2069905;28;3853;-40
2021/06/13 01:22:12;;;;;;;;;;;;;;;22.38;42.26;101636.72;2072021;28;4054;-40
2021/06/13 01:23:38;;;;;;;;;;;;;;;22.39;41.96;101646.13;2064058;28;3907;-40
2021/06/13 01:25:05;;;;;;;;;;;;;;;22.38;41.98;101636.72;2070383;28;4247;-40
2021/06/13 01:26:31;;;;;;;;;;;;;;;22.37;42.00;101643.59;2069237;28;4126;-39
2021/06/13 01:27:57;;;;;;;;;;;;;;;22.37;41.93;101639.91;2069618;28;4265;-38
2021/06/13 01:29:24;;;;;;;;;;;;;;;22.36;41.81;101644.78;2068626;28;4144;-38
2021/06/13 01:30:50;;;;;;;;;;;;;;;22.36;41.89;101635.41;2066418;28;4069;-39
2021/06/13 01:32:18;;;;;;;;;;;;;;;22.36;41.97;101641.94;2070323;28;4053;-39
2021/06/13 01:33:44;;;;;;;;;;;;;;;22.36;42.03;101643.97;2072853;28;3916;-39
2021/06/13 01:35:10;;;;;;;;;;;;;;;22.36;41.95;101638.25;2071876;28;4112;-39
2021/06/13 01:36:37;;;;;;;;;;;;;;;22.34;41.89;101643.47;2071666;28;4069;-41
2021/06/13 01:38:03;;;;;;;;;;;;;;;22.34;41.66;101640.59;2069044;28;4036;-39
2021/06/13 01:39:30;;;;;;;;;;;;;;;22.32;41.53;101637.25;2070824;28;4079;-37
2021/06/13 01:40:57;;;;;;;;;;;;;;;22.33;41.58;101644.63;2068688;28;4052;-39
2021/06/13 01:42:23;;;;;;;;;;;;;;;22.33;41.74;101647.47;2068311;28;4171;-39
2021/06/13 01:43:49;;;;;;;;;;;;;;;22.33;41.48;101647.47;2071904;28;4006;-40
2021/06/13 01:45:16;;;;;;;;;;;;;;;22.33;41.58;101645.47;2060853;28;4189;-40
2021/06/13 01:46:42;;;;;;;;;;;;;;;22.32;41.57;101643.78;2067487;28;3896;-38
2021/06/13 01:48:08;;;;;;;;;;;;;;;22.31;41.63;101644.16;2069261;28;4052;-38
2021/06/13 01:49:35;;;;;;;;;;;;;;;22.31;41.56;101644.16;2069494;28;4073;-37
2021/06/13 01:51:02;;;;;;;;;;;;;;;22.31;41.52;101649.84;2069418;28;5365;-39
2021/06/13 01:52:28;;;;;;;;;;;;;;;22.29;41.51;101644.47;2063853;28;3769;-37
2021/06/13 01:53:54;;;;;;;;;;;;;;;22.29;41.45;101641.63;2067114;28;3875;-40
2021/06/13 01:55:21;;;;;;;;;;;;;;;22.29;41.58;101649.34;2069053;28;4205;-39
2021/06/13 01:56:47;;;;;;;;;;;;;;;22.29;41.52;101652.19;2069338;28;4153;-39
2021/06/13 01:58:13;;;;;;;;;;;;;;;22.28;41.34;101647.69;2071658;28;4470;-40
2021/06/13 01:59:40;;;;;;;;;;;;;;;22.27;41.52;101646.81;2069527;28;3903;-40
2021/06/13 02:01:06;;;;;;;;;;;;;;;22.26;41.39;101650.88;2070114;28;5137;-39
2021/06/13 02:02:33;;;;;;;;;;;;;;;22.26;41.60;101656.56;2065559;28;4071;-40
2021/06/13 02:04:01;;;;;;;;;;;;;;;22.26;41.49;101658.59;2068290;28;4199;-39
2021/06/13 02:05:27;;;;;;;;;;;;;;;22.26;41.62;101659.41;2069783;28;3915;-40
2021/06/13 02:06:57;;;;;;;;;;;;;;;22.26;41.40;101659.41;2068995;28;3915;-40
2021/06/13 02:08:23;;;;;;;;;;;;;;;22.24;41.36;101651.19;2068808;28;4261;-40
2021/06/13 02:09:49;;;;;;;;;;;;;;;22.24;41.52;101662.59;2068231;28;4041;-40
2021/06/13 02:11:16;;;;;;;;;;;;;;;22.23;41.62;101660.09;2069669;28;4214;-40
2021/06/13 02:12:42;;;;;;;;;;;;;;;22.22;41.21;101656.44;2070558;28;3986;-37
2021/06/13 02:14:08;;;;;;;;;;;;;;;22.21;41.11;101656.75;2070490;28;4199;-39
2021/06/13 02:15:36;;;;;;;;;;;;;;;22.20;41.07;101667.31;2064355;28;3992;-40
2021/06/13 02:17:02;;;;;;;;;;;;;;;22.19;41.24;101659.09;2067209;28;4198;-40
2021/06/13 02:18:29;;;;;;;;;;;;;;;22.19;41.30;101659.97;2063343;28;4048;-37
2021/06/13 02:19:56;;;;;;;;;;;;;;;22.19;41.13;101673.34;2069603;28;4027;-40
2021/06/13 02:21:22;;;;;;;;;;;;;;;22.19;41.40;101668.50;2070693;28;3968;-39
2021/06/13 02:22:48;;;;;;;;;;;;;;;22.19;41.31;101670.50;2070143;28;4015;-40
2021/06/13 02:24:14;;;;;;;;;;;;;;;22.18;41.29;101671.69;2070101;28;4098;-40
2021/06/13 02:25:40;;;;;;;;;;;;;;;22.19;41.45;101673.34;2070582;28;3978;-40
2021/06/13 02:27:07;;;;;;;;;;;;;;;22.18;41.47;101666.81;2070329;28;4157;-40
2021/06/13 02:28:34;;;;;;;;;;;;;;;22.18;41.38;101671.69;2069394;28;4988;-39
2021/06/13 02:30:01;;;;;;;;;;;;;;;22.17;41.37;101672.84;2070387;28;4258;-40
2021/06/13 02:31:29;;;;;;;;;;;;;;;22.17;41.36;101676.53;2070566;28;4098;-39
2021/06/13 02:32:55;;;;;;;;;;;;;;;22.17;41.43;101681.41;2070982;28;4189;-40
2021/06/13 02:34:22;;;;;;;;;;;;;;;22.16;41.36;101680.53;2070699;28;3899;-38
2021/06/13 02:35:48;;;;;;;;;;;;;;;22.16;41.46;101680.53;2069120;28;3939;-39
2021/06/13 02:37:14;;;;;;;;;;;;;;;22.16;41.41;101683.38;2069639;28;4049;-39
2021/06/13 02:38:40;;;;;;;;;;;;;;;22.15;41.57;101684.56;2072067;28;3878;-40
2021/06/13 02:40:06;;;;;;;;;;;;;;;22.16;41.65;101685.41;2069325;28;4232;-36
2021/06/13 02:41:32;;;;;;;;;;;;;;;22.16;41.53;101691.09;2071498;28;3881;-39
2021/06/13 02:42:59;;;;;;;;;;;;;;;22.14;41.55;101693.47;2071488;28;4046;-40
2021/06/13 02:44:26;;;;;;;;;;;;;;;22.14;41.50;101696.34;2071215;28;3888;-40
2021/06/13 02:45:53;;;;;;;;;;;;;;;22.13;41.60;101695.47;2069404;28;3987;-38
2021/06/13 02:47:20;;;;;;;;;;;;;;;22.13;41.71;101691.78;2070848;28;4198;-39
2021/06/13 02:48:46;;;;;;;;;;;;;;;22.13;41.75;101691.78;2071968;28;4152;-39
2021/06/13 02:50:13;;;;;;;;;;;;;;;22.13;41.88;101688.94;2068798;28;4284;-38
2021/06/13 02:51:40;;;;;;;;;;;;;;;22.14;41.71;101690.63;2071098;28;3897;-40
2021/06/13 02:53:07;;;;;;;;;;;;;;;22.13;41.74;101689.78;2071969;28;4232;-40
2021/06/13 02:54:34;;;;;;;;;;;;;;;22.13;41.71;101701.16;2071836;28;3904;-39
2021/06/13 02:56:00;;;;;;;;;;;;;;;22.12;41.76;101705.22;2071014;28;4041;-38
2021/06/13 02:57:26;;;;;;;;;;;;;;;22.11;41.68;101703.53;2070505;28;4065;-39
2021/06/13 02:58:53;;;;;;;;;;;;;;;22.12;41.83;101712.94;2068342;28;4036;-37
2021/06/13 03:00:20;;;;;;;;;;;;;;;22.11;41.88;101705.53;2065280;28;4037;-40
2021/06/13 03:01:49;;;;;;;;;;;;;;;22.10;41.82;101716.09;2069960;28;3949;-40
2021/06/13 03:03:15;;;;;;;;;;;;;;;22.10;41.95;101718.94;2062478;28;4262;-39
2021/06/13 03:04:42;;;;;;;;;;;;;;;22.08;41.66;101724.19;2067948;28;4023;-39
2021/06/13 03:06:08;;;;;;;;;;;;;;;22.08;41.71;101727.03;2069268;28;4863;-38
2021/06/13 03:07:35;;;;;;;;;;;;;;;22.06;41.62;101732.22;2063967;28;4115;-40
2021/06/13 03:09:01;;;;;;;;;;;;;;;22.05;41.59;101736.22;2070264;28;4192;-40
2021/06/13 03:10:28;;;;;;;;;;;;;;;22.05;41.73;101732.53;2070420;28;4099;-40
2021/06/13 03:11:55;;;;;;;;;;;;;;;22.03;41.65;101724.34;2071078;28;4175;-39
2021/06/13 03:13:22;;;;;;;;;;;;;;;22.04;41.58;101728.03;2070190;28;3903;-40
2021/06/13 03:14:48;;;;;;;;;;;;;;;22.02;41.58;101722.66;2068832;28;3956;-39
2021/06/13 03:16:14;;;;;;;;;;;;;;;22.01;41.58;101730.38;2064966;28;4068;-40
2021/06/13 03:17:40;;;;;;;;;;;;;;;22.00;41.51;101730.72;2065623;28;4025;-39
2021/06/13 03:19:07;;;;;;;;;;;;;;;21.99;41.34;101729.03;2069497;28;4485;-39
2021/06/13 03:20:33;;;;;;;;;;;;;;;21.98;41.39;101741.63;2062567;28;3880;-37
2021/06/13 03:21:59;;;;;;;;;;;;;;;21.98;41.39;101738.78;2068784;28;4902;-39
2021/06/13 03:23:26;;;;;;;;;;;;;;;21.97;41.58;101737.94;2071096;28;4044;-38
2021/06/13 03:24:52;;;;;;;;;;;;;;;21.97;41.53;101737.94;2069072;28;4230;-40
2021/06/13 03:26:19;;;;;;;;;;;;;;;21.97;41.58;101739.94;2062681;28;4032;-40
2021/06/13 03:27:46;;;;;;;;;;;;;;;21.96;41.65;101744.78;2067514;28;4054;-39
2021/06/13 03:29:13;;;;;;;;;;;;;;;21.96;41.62;101738.25;2070391;28;4050;-40
2021/06/13 03:30:40;;;;;;;;;;;;;;;21.97;41.68;101748.47;2070011;28;4047;-36
2021/06/13 03:32:07;;;;;;;;;;;;;;;21.96;41.54;101746.81;2069320;28;4040;-39
2021/06/13 03:33:33;;;;;;;;;;;;;;;21.93;41.50;101741.78;2069943;28;4059;-39
2021/06/13 03:34:59;;;;;;;;;;;;;;;21.92;41.51;101748.69;2067127;28;4058;-40
2021/06/13 03:36:25;;;;;;;;;;;;;;;21.90;41.57;101751.00;2068837;28;4131;-39
2021/06/13 03:37:51;;;;;;;;;;;;;;;21.90;41.55;101745.31;2068273;28;4018;-40
2021/06/13 03:39:18;;;;;;;;;;;;;;;21.88;41.64;101754.19;2071080;28;4070;-38
2021/06/13 03:40:44;;;;;;;;;;;;;;;21.89;41.49;101757.88;2066628;28;4048;-40
2021/06/13 03:42:13;;;;;;;;;;;;;;;21.88;41.49;101759.06;2068725;28;4313;-37
2021/06/13 03:43:40;;;;;;;;;;;;;;;21.88;41.49;101759.88;2065710;28;3994;-40
2021/06/13 03:45:08;;;;;;;;;;;;;;;21.87;41.51;101757.38;2071441;28;4234;-39
2021/06/13 03:46:36;;;;;;;;;;;;;;;21.87;41.67;101761.06;2069955;28;4127;-40
2021/06/13 03:48:03;;;;;;;;;;;;;;;21.86;41.60;101761.41;2068406;28;4108;-40
2021/06/13 03:49:30;;;;;;;;;;;;;;;21.85;41.52;101766.25;2069016;28;4211;-40
2021/06/13 03:50:57;;;;;;;;;;;;;;;21.84;41.55;101769.47;2070252;28;4066;-38
2021/06/13 03:52:26;;;;;;;;;;;;;;;21.84;41.33;101766.63;2069644;28;3935;-38
2021/06/13 03:53:55;;;;;;;;;;;;;;;21.83;41.58;101770.63;2069809;28;4046;-39
2021/06/13 03:55:21;;;;;;;;;;;;;;;21.82;41.49;101774.66;2068591;28;4196;-37
2021/06/13 03:56:47;;;;;;;;;;;;;;;21.82;41.51;101766.94;2067853;28;4081;-40
2021/06/13 03:58:14;;;;;;;;;;;;;;;21.83;41.72;101773.47;2069265;28;4051;-38
2021/06/13 03:59:40;;;;;;;;;;;;;;;21.82;41.75;101763.25;2070209;28;3863;-40
2021/06/13 04:01:06;;;;;;;;;;;;;;;21.80;41.41;101778.66;2069352;28;4191;-40
2021/06/13 04:02:33;;;;;;;;;;;;;;;21.78;41.53;101772.47;2069908;28;4040;-40
2021/06/13 04:03:59;;;;;;;;;;;;;;;21.78;41.51;101777.34;2069204;28;4212;-37
2021/06/13 04:05:26;;;;;;;;;;;;;;;21.78;41.60;101783.88;2070762;28;3895;-37
2021/06/13 04:06:53;;;;;;;;;;;;;;;21.78;41.60;101772.47;2068990;28;4081;-39
2021/06/13 04:08:20;;;;;;;;;;;;;;;21.78;41.56;101783.03;2070736;28;4053;-39
2021/06/13 04:09:47;;;;;;;;;;;;;;;21.76;41.65;101782.53;2069267;28;4055;-40
2021/06/13 04:11:14;;;;;;;;;;;;;;;21.77;41.55;101784.19;2069342;28;4210;-39
2021/06/13 04:12:40;;;;;;;;;;;;;;;21.75;41.52;101784.53;2069090;28;3903;-40
2021/06/13 04:14:07;;;;;;;;;;;;;;;21.75;41.40;101790.25;2069364;28;4024;-39
2021/06/13 04:15:33;;;;;;;;;;;;;;;21.74;41.63;101788.53;2069946;28;4070;-40
2021/06/13 04:17:00;;;;;;;;;;;;;;;21.74;41.71;101785.69;2067128;28;4049;-38
2021/06/13 04:18:27;;;;;;;;;;;;;;;21.73;41.65;101792.59;2068792;28;3910;-39
2021/06/13 04:19:54;;;;;;;;;;;;;;;21.73;41.65;101791.75;2068912;28;4098;-39
2021/06/13 04:21:20;;;;;;;;;;;;;;;21.73;41.44;101791.75;2070581;28;4070;-40
2021/06/13 04:22:46;;;;;;;;;;;;;;;21.72;41.71;101793.75;2069561;28;3921;-40
2021/06/13 04:24:12;;;;;;;;;;;;;;;21.71;41.85;101797.75;2069982;28;4233;-40
2021/06/13 04:25:39;;;;;;;;;;;;;;;21.72;41.69;101799.47;2070007;28;4076;-39
2021/06/13 04:27:05;;;;;;;;;;;;;;;21.70;41.74;101798.94;2069976;28;5043;-40
2021/06/13 04:28:31;;;;;;;;;;;;;;;21.71;41.74;101799.78;2070253;28;3906;-40
2021/06/13 04:29:59;;;;;;;;;;;;;;;21.69;41.82;101790.72;2069927;28;4840;-38
2021/06/13 04:31:25;;;;;;;;;;;;;;;21.68;41.79;101794.75;2068330;28;3902;-38
2021/06/13 04:32:52;;;;;;;;;;;;;;;21.68;41.75;101791.91;2070167;28;4034;-39
2021/06/13 04:34:18;;;;;;;;;;;;;;;21.68;41.75;101789.06;2070136;28;4202;-41
2021/06/13 04:35:44;;;;;;;;;;;;;;;21.67;41.74;101791.06;2068970;28;3919;-35
2021/06/13 04:37:10;;;;;;;;;;;;;;;21.67;41.87;101801.59;2070533;28;4216;-40
2021/06/13 04:38:37;;;;;;;;;;;;;;;21.66;41.79;101792.22;2071910;28;4077;-40
2021/06/13 04:40:03;;;;;;;;;;;;;;;21.65;41.92;101799.09;2071481;28;4197;-40
2021/06/13 04:41:33;;;;;;;;;;;;;;;21.64;41.74;101800.28;2071618;28;3883;-40
2021/06/13 04:43:00;;;;;;;;;;;;;;;21.64;41.81;101793.72;2071183;28;4237;-39
2021/06/13 04:44:27;;;;;;;;;;;;;;;21.63;41.78;101800.59;2069740;28;4118;-40
2021/06/13 04:45:54;;;;;;;;;;;;;;;21.62;41.64;101794.09;2071476;28;3811;-40
2021/06/13 04:47:21;;;;;;;;;;;;;;;21.60;41.64;101799.28;2071797;28;4240;-40
2021/06/13 04:48:48;;;;;;;;;;;;;;;21.61;41.79;101805.78;2071644;28;3880;-35
2021/06/13 04:50:15;;;;;;;;;;;;;;;21.62;41.77;101804.63;2071269;28;4033;-39
2021/06/13 04:51:42;;;;;;;;;;;;;;;21.60;41.68;101804.97;2072488;28;3902;-40
2021/06/13 04:53:09;;;;;;;;;;;;;;;21.60;41.66;101809.81;2070301;28;4028;-39
2021/06/13 04:54:35;;;;;;;;;;;;;;;21.59;41.91;101809.00;2072149;28;3883;-40
2021/06/13 04:56:01;;;;;;;;;;;;;;;21.61;41.82;101814.34;2071432;28;4254;-38
2021/06/13 04:57:28;;;;;;;;;;;;;;;21.61;41.93;101811.50;2071423;28;3901;-39
2021/06/13 04:58:55;;;;;;;;;;;;;;;21.57;41.65;101814.19;2072326;28;4000;-35
2021/06/13 05:00:22;;;;;;;;;;;;;;;21.56;41.67;101809.66;2070831;28;3894;-38
2021/06/13 05:01:49;;;;;;;;;;;;;;;21.54;41.83;101814.84;2069959;28;3928;-39
2021/06/13 05:03:16;;;;;;;;;;;;;;;21.53;41.72;101821.69;2068996;28;4014;-40
2021/06/13 05:04:42;;;;;;;;;;;;;;;21.53;41.88;101818.84;2070807;28;4042;-39
2021/06/13 05:06:08;;;;;;;;;;;;;;;21.52;42.05;101823.72;2068451;28;4185;-40
2021/06/13 05:07:34;;;;;;;;;;;;;;;21.53;41.95;101821.69;2066543;28;4310;-39
2021/06/13 05:09:00;;;;;;;;;;;;;;;21.53;41.94;101816.00;2070076;28;5057;-38
2021/06/13 05:10:27;;;;;;;;;;;;;;;21.52;42.06;101817.19;2071496;28;3914;-40
2021/06/13 05:11:53;;;;;;;;;;;;;;;21.52;42.07;101811.47;2069421;28;4034;-39
2021/06/13 05:13:20;;;;;;;;;;;;;;;21.51;42.12;101809.81;2071456;28;4401;-38
2021/06/13 05:14:47;;;;;;;;;;;;;;;21.50;42.15;101811.84;2070977;28;4051;-38
2021/06/13 05:16:13;;;;;;;;;;;;;;;21.50;42.21;101819.50;2071954;28;4173;-40
2021/06/13 05:17:40;;;;;;;;;;;;;;;21.50;42.15;101822.34;2065849;28;4081;-40
2021/06/13 05:19:06;;;;;;;;;;;;;;;21.49;42.18;101815.00;2071965;28;4567;-40
2021/06/13 05:20:33;;;;;;;;;;;;;;;21.51;42.36;101821.22;2067435;28;3870;-40
2021/06/13 05:21:59;;;;;;;;;;;;;;;21.49;42.20;101824.38;2070661;28;4089;-39
2021/06/13 05:23:26;;;;;;;;;;;;;;;21.48;42.24;101813.34;2072181;28;3973;-40
2021/06/13 05:24:52;;;;;;;;;;;;;;;21.49;42.42;101817.84;2068736;28;4100;-40
2021/06/13 05:26:18;;;;;;;;;;;;;;;21.48;42.26;101824.72;2065548;28;4079;-37
2021/06/13 05:27:44;;;;;;;;;;;;;;;21.47;42.42;101823.03;2070752;28;3890;-40
2021/06/13 05:29:10;;;;;;;;;;;;;;;21.46;42.40;101824.22;2072699;28;4068;-38
2021/06/13 05:30:36;;;;;;;;;;;;;;;21.47;42.42;101825.88;2072257;28;4130;-40
2021/06/13 05:32:03;;;;;;;;;;;;;;;21.48;42.23;101824.72;2070470;28;4058;-37
2021/06/13 05:33:30;;;;;;;;;;;;;;;21.46;42.44;101816.50;2071997;28;4099;-40
2021/06/13 05:34:56;;;;;;;;;;;;;;;21.46;42.44;101827.06;2070819;28;4082;-40
2021/06/13 05:36:23;;;;;;;;;;;;;;;21.46;42.49;101841.28;2072481;28;4159;-39
2021/06/13 05:37:49;;;;;;;;;;;;;;;21.45;42.32;101839.59;2072304;28;4077;-39
2021/06/13 05:39:16;;;;;;;;;;;;;;;21.44;42.52;101835.91;2071497;28;4023;-40
2021/06/13 05:40:43;;;;;;;;;;;;;;;21.44;42.63;101832.25;2071318;28;4114;-41
2021/06/13 05:42:10;;;;;;;;;;;;;;;21.44;42.54;101830.22;2071243;28;4217;-40
2021/06/13 05:43:36;;;;;;;;;;;;;;;21.44;42.54;101835.91;2072704;28;3941;-41
2021/06/13 05:45:02;;;;;;;;;;;;;;;21.42;42.69;101838.28;2070477;28;4271;-40
2021/06/13 05:46:29;;;;;;;;;;;;;;;21.43;42.59;101839.94;2071754;28;4132;-40
2021/06/13 05:47:55;;;;;;;;;;;;;;;21.43;42.62;101839.13;2071452;28;3879;-42
2021/06/13 05:49:21;;;;;;;;;;;;;;;21.42;42.71;101843.97;2071479;28;4243;-41
2021/06/13 05:50:48;;;;;;;;;;;;;;;21.42;42.60;101843.97;2071537;28;3873;-40
2021/06/13 05:52:15;;;;;;;;;;;;;;;21.42;42.77;101840.25;2072599;28;4230;-41
2021/06/13 05:53:41;;;;;;;;;;;;;;;21.43;42.59;101854.19;2073062;28;4087;-40
2021/06/13 05:55:08;;;;;;;;;;;;;;;21.42;42.76;101851.66;2071638;28;4210;-40
2021/06/13 05:56:34;;;;;;;;;;;;;;;21.41;42.78;101856.50;2071399;28;3941;-40
2021/06/13 05:58:00;;;;;;;;;;;;;;;21.42;42.87;101868.72;2071357;28;4196;-40
2021/06/13 05:59:27;;;;;;;;;;;;;;;21.39;42.82;101855.16;2071249;28;3804;-40
2021/06/13 06:00:54;;;;;;;;;;;;;;;21.40;42.75;101859.72;2069348;28;3907;-40
2021/06/13 06:02:20;;;;;;;;;;;;;;;21.40;42.81;101868.25;2071961;28;4223;-39
2021/06/13 06:03:47;;;;;;;;;;;;;;;21.39;42.88;101870.22;2072451;28;4048;-39
2021/06/13 06:05:13;;;;;;;;;;;;;;;21.40;42.84;101860.53;2062555;28;4312;-40
2021/06/13 06:06:40;;;;;;;;;;;;;;;21.39;42.80;101856.00;2070095;28;4108;-38
2021/06/13 06:08:08;;;;;;;;;;;;;;;21.41;42.94;101864.22;2070235;28;4170;-40
2021/06/13 06:09:34;;;;;;;;;;;;;;;21.41;42.94;101861.38;2071167;28;4098;-39
2021/06/13 06:11:01;;;;;;;;;;;;;;;21.41;42.95;101869.91;2071151;28;4217;-40
2021/06/13 06:12:27;;;;;;;;;;;;;;;21.41;42.88;101864.22;2072002;28;4076;-41
2021/06/13 06:13:54;;;;;;;;;;;;;;;21.41;43.01;101869.91;2071059;28;4069;-40
2021/06/13 06:15:21;;;;;;;;;;;;;;;21.40;43.14;101882.47;2069867;28;4088;-37
2021/06/13 06:16:47;;;;;;;;;;;;;;;21.41;43.03;101889.84;2071483;28;3911;-40
2021/06/13 06:18:14;;;;;;;;;;;;;;;21.39;42.97;101887.31;2069754;28;4065;-37
2021/06/13 06:19:40;;;;;;;;;;;;;;;21.38;43.21;101888.50;2070847;28;4080;-40
2021/06/13 06:21:06;;;;;;;;;;;;;;;21.39;43.38;101881.63;2070588;28;4904;-39
2021/06/13 06:22:33;;;;;;;;;;;;;;;21.40;43.02;101879.63;2070582;28;3884;-40
2021/06/13 06:24:00;;;;;;;;;;;;;;;21.37;43.13;101886.81;2070304;28;4199;-38
2021/06/13 06:25:27;;;;;;;;;;;;;;;21.38;43.19;101884.81;2065887;28;4100;-40
2021/06/13 06:26:53;;;;;;;;;;;;;;;21.38;43.21;101882.78;2066232;28;3862;-40
2021/06/13 06:28:19;;;;;;;;;;;;;;;21.39;43.30;101889.31;2061960;28;4212;-40
2021/06/13 06:29:45;;;;;;;;;;;;;;;21.38;43.22;101891.34;2064584;28;4051;-40
2021/06/13 06:31:12;;;;;;;;;;;;;;;21.37;43.13;101885.97;2065917;28;4217;-39
2021/06/13 06:32:38;;;;;;;;;;;;;;;21.36;43.28;101885.09;2063982;28;3894;-40
2021/06/13 06:34:04;;;;;;;;;;;;;;;21.35;42.96;101891.97;2064899;28;4155;-40
2021/06/13 06:35:30;;;;;;;;;;;;;;;21.35;43.30;101883.44;2064106;28;4121;-38
2021/06/13 06:36:57;;;;;;;;;;;;;;;21.35;43.41;101884.25;2066951;28;4275;-40
2021/06/13 06:38:23;;;;;;;;;;;;;;;21.35;43.25;101883.44;2064497;28;4063;-39
2021/06/13 06:39:49;;;;;;;;;;;;;;;21.36;43.22;101885.09;2060416;28;3916;-40
2021/06/13 06:41:16;;;;;;;;;;;;;;;21.34;43.31;101881.75;2063978;28;4100;-40
2021/06/13 06:42:42;;;;;;;;;;;;;;;21.34;43.32;101891.13;2063577;28;3874;-40
2021/06/13 06:44:09;;;;;;;;;;;;;;;21.35;43.35;101894.81;2064459;28;4074;-36
2021/06/13 06:45:36;;;;;;;;;;;;;;;21.35;43.31;101894.81;2063009;28;3905;-40
2021/06/13 06:47:03;;;;;;;;;;;;;;;21.34;43.29;101888.28;2065227;28;4228;-38
2021/06/13 06:48:29;;;;;;;;;;;;;;;21.34;43.28;101890.31;2065728;28;4963;-40
2021/06/13 06:49:56;;;;;;;;;;;;;;;21.33;43.29;101889.44;2065828;28;4205;-38
2021/06/13 06:51:22;;;;;;;;;;;;;;;21.33;43.19;101892.28;2063430;28;4047;-41
2021/06/13 06:52:49;;;;;;;;;;;;;;;21.34;43.23;101893.97;2066809;28;4051;-40
2021/06/13 06:54:16;;;;;;;;;;;;;;;21.33;43.36;101897.97;2063751;28;4196;-40
2021/06/13 06:55:42;;;;;;;;;;;;;;;21.34;43.20;101913.91;2064866;28;4105;-38
2021/06/13 06:57:09;;;;;;;;;;;;;;;21.32;43.35;101902.00;2065383;28;4386;-40
2021/06/13 06:58:36;;;;;;;;;;;;;;;21.33;43.41;101903.66;2064864;28;4273;-40
2021/06/13 07:00:02;;;;;;;;;;;;;;;21.33;43.31;101897.97;2063011;28;4212;-39
2021/06/13 07:01:29;;;;;;;;;;;;;;;21.34;43.36;101904.53;2060784;28;4045;-40
2021/06/13 07:02:57;;;;;;;;;;;;;;;21.33;43.43;101895.13;2066106;28;4011;-39
2021/06/13 07:04:24;;;;;;;;;;;;;;;21.34;43.41;101915.94;2066344;28;4139;-39
2021/06/13 07:05:50;;;;;;;;;;;;;;;21.33;43.54;101909.38;2064988;28;4000;-40
2021/06/13 07:07:17;;;;;;;;;;;;;;;21.33;43.39;101917.06;2062308;28;4057;-39
2021/06/13 07:08:44;;;;;;;;;;;;;;;21.32;43.52;101909.72;2063616;28;3799;-40
2021/06/13 07:10:10;;;;;;;;;;;;;;;21.31;43.54;101908.88;2064444;28;4266;-39
2021/06/13 07:11:37;;;;;;;;;;;;;;;21.32;43.54;101916.25;2061144;28;3784;-39
2021/06/13 07:13:04;;;;;;;;;;;;;;;21.34;43.43;101915.94;2062944;28;4283;-40
2021/06/13 07:14:30;;;;;;;;;;;;;;;21.33;43.40;101908.53;2064064;28;4064;-40
2021/06/13 07:15:57;;;;;;;;;;;;;;;21.33;43.38;101914.22;2065537;28;4208;-38
2021/06/13 07:17:23;;;;;;;;;;;;;;;21.31;43.60;101917.41;2064043;28;4056;-39
2021/06/13 07:18:49;;;;;;;;;;;;;;;21.31;43.35;101923.13;2065135;28;3892;-40
2021/06/13 07:20:15;;;;;;;;;;;;;;;21.31;43.26;101928.81;2063937;28;4046;-40
2021/06/13 07:21:43;;;;;;;;;;;;;;;21.31;43.31;101928.81;2066733;28;3946;-40
2021/06/13 07:23:10;;;;;;;;;;;;;;;21.30;43.30;101934.81;2063792;28;4051;-38
2021/06/13 07:24:37;;;;;;;;;;;;;;;21.30;43.43;101932.81;2066708;28;3888;-40
2021/06/13 07:26:04;;;;;;;;;;;;;;;21.30;43.15;101932.81;2060322;28;4059;-40
2021/06/13 07:27:30;;;;;;;;;;;;;;;21.29;43.14;101931.13;2061436;28;3958;-39
2021/06/13 07:28:56;;;;;;;;;;;;;;;21.30;43.15;101929.13;2060431;28;4051;-38
2021/06/13 07:30:22;;;;;;;;;;;;;;;21.30;43.23;101931.97;2062879;28;4061;-40
2021/06/13 07:31:48;;;;;;;;;;;;;;;21.31;43.24;101930.78;2061627;28;3946;-40